createdAt,value
2022-10-30T00:01:20.291Z,964.14
2022-10-30T00:06:51.901Z,964.12
2022-10-30T00:12:25.640Z,964.16
2022-10-30T00:17:57.531Z,964.16
2022-10-30T00:23:28.867Z,964.14
2022-10-30T00:29:00.324Z,964.18
2022-10-30T00:34:32.431Z,964.12
2022-10-30T00:40:04.014Z,964.10
2022-10-30T00:45:35.852Z,964.10
2022-10-30T00:51:07.835Z,964.08
2022-10-30T00:56:39.471Z,964.08
2022-10-30T01:02:11.411Z,964.08
2022-10-30T01:07:43.259Z,964.08
2022-10-30T01:13:14.916Z,964.08
2022-10-30T01:18:46.872Z,964.12
2022-10-30T01:24:18.279Z,964.14
2022-10-30T01:29:50.012Z,964.16
2022-10-30T01:35:21.672Z,964.16
2022-10-30T01:40:53.057Z,964.14
2022-10-30T01:46:24.542Z,964.16
2022-10-30T01:51:56.620Z,964.14
2022-10-30T01:57:28.558Z,964.12
2022-10-30T02:03:00.692Z,964.14
2022-10-30T02:08:32.058Z,964.14
2022-10-30T02:14:03.825Z,964.08
2022-10-30T02:19:35.703Z,964.06
2022-10-30T02:25:07.918Z,964.02
2022-10-30T02:30:39.582Z,963.98
2022-10-30T02:36:11.936Z,963.94
2022-10-30T02:41:43.877Z,963.92
2022-10-30T02:47:15.902Z,963.88
2022-10-30T02:52:47.909Z,963.92
2022-10-30T02:58:20.119Z,963.98
2022-10-30T03:03:51.739Z,963.98
2022-10-30T03:09:23.689Z,964.00
2022-10-30T03:14:58.221Z,963.96
2022-10-30T03:20:30.056Z,963.94
2022-10-30T03:26:01.927Z,963.88
2022-10-30T03:31:33.721Z,963.82
2022-10-30T03:37:05.769Z,963.78
2022-10-30T03:42:37.818Z,963.80
2022-10-30T03:53:41.246Z,963.92
2022-10-30T03:59:12.946Z,963.92
2022-10-30T04:04:44.824Z,963.94
2022-10-30T04:10:20.952Z,963.94
2022-10-30T04:15:55.744Z,963.96
2022-10-30T04:21:20.263Z,963.96
2022-10-30T04:26:52.122Z,963.94
2022-10-30T04:32:25.687Z,963.92
2022-10-30T04:37:57.645Z,963.94
2022-10-30T04:43:29.113Z,963.90
2022-10-30T04:49:01.094Z,963.86
2022-10-30T04:54:32.733Z,963.82
2022-10-30T05:00:04.548Z,963.78
2022-10-30T05:05:36.253Z,963.76
2022-10-30T05:11:08.029Z,963.76
2022-10-30T05:16:39.848Z,963.74
2022-10-30T05:22:11.704Z,963.71
2022-10-30T05:27:43.606Z,963.71
2022-10-30T05:33:17.196Z,963.67
2022-10-30T05:38:48.907Z,963.65
2022-10-30T05:49:52.403Z,963.63
2022-10-30T05:55:24.205Z,963.59
2022-10-30T06:00:55.951Z,963.57
2022-10-30T06:03:07.286Z,963.53
2022-10-30T06:14:12.609Z,963.59
2022-10-30T06:19:44.055Z,963.61
2022-10-30T06:25:21.920Z,963.65
2022-10-30T06:30:53.656Z,963.69
2022-10-30T06:36:25.471Z,963.69
2022-10-30T06:41:57.367Z,963.65
2022-10-30T06:47:28.945Z,963.69
2022-10-30T06:53:00.811Z,963.67
2022-10-30T06:58:32.545Z,963.69
2022-10-30T07:04:04.349Z,963.67
2022-10-30T07:09:35.739Z,963.69
2022-10-30T07:15:08.298Z,963.71
2022-10-30T07:20:40.011Z,963.72
2022-10-30T07:26:11.690Z,963.74
2022-10-30T07:31:57.623Z,963.78
2022-10-30T07:37:15.233Z,963.84
2022-10-30T07:42:47.015Z,963.82
2022-10-30T07:48:18.759Z,963.86
2022-10-30T07:53:50.665Z,963.88
2022-10-30T07:59:22.377Z,963.88
2022-10-30T08:04:54.200Z,963.88
2022-10-30T08:10:26.080Z,963.94
2022-10-30T08:15:57.819Z,963.92
2022-10-30T08:21:29.508Z,963.90
2022-10-30T08:27:01.442Z,963.90
2022-10-30T08:32:33.063Z,963.88
2022-10-30T08:38:04.797Z,963.86
2022-10-30T08:43:36.562Z,963.88
2022-10-30T08:49:08.212Z,963.86
2022-10-30T08:54:40.201Z,963.88
2022-10-30T09:05:41.424Z,963.84
2022-10-30T09:11:13.188Z,963.82
2022-10-30T09:16:45.074Z,963.76
2022-10-30T09:22:17.083Z,963.78
2022-10-30T09:27:48.765Z,963.76
2022-10-30T09:33:20.443Z,963.78
2022-10-30T09:38:52.239Z,963.78
2022-10-30T09:44:24.069Z,963.76
2022-10-30T09:49:55.962Z,963.76
2022-10-30T09:55:27.625Z,963.78
2022-10-30T10:01:03.063Z,963.76
2022-10-30T10:06:31.245Z,963.78
2022-10-30T10:12:03.109Z,963.76
2022-10-30T10:17:34.820Z,963.78
2022-10-30T10:23:06.818Z,963.80
2022-10-30T10:28:38.829Z,963.82
2022-10-30T10:34:10.722Z,963.82
2022-10-30T10:39:42.244Z,963.82
2022-10-30T10:45:13.987Z,963.76
2022-10-30T10:50:45.950Z,963.76
2022-10-30T10:56:19.499Z,963.74
2022-10-30T11:01:51.938Z,963.69
2022-10-30T11:04:14.156Z,963.59
2022-10-30T11:09:45.973Z,963.59
2022-10-30T11:15:17.512Z,963.53
2022-10-30T11:20:49.353Z,963.53
2022-10-30T11:26:21.098Z,963.49
2022-10-30T11:31:52.613Z,963.43
2022-10-30T11:37:24.391Z,963.35
2022-10-30T11:42:56.446Z,963.29
2022-10-30T11:48:28.034Z,963.24
2022-10-30T11:53:59.750Z,963.20
2022-10-30T11:59:31.836Z,963.14
2022-10-30T12:05:03.580Z,963.10
2022-10-30T12:10:36.682Z,963.02
2022-10-30T12:18:30.268Z,962.84
2022-10-30T12:24:01.722Z,962.84
2022-10-30T12:30:02.501Z,962.80
2022-10-30T12:35:05.330Z,962.76
2022-10-30T12:40:37.480Z,962.73
2022-10-30T12:46:09.255Z,962.71
2022-10-30T13:02:39.909Z,962.63
2022-10-30T13:08:11.689Z,962.61
2022-10-30T13:13:43.516Z,962.59
2022-10-30T13:19:15.144Z,962.59
2022-10-30T13:24:46.866Z,962.55
2022-10-30T13:30:18.711Z,962.53
2022-10-30T13:35:50.660Z,962.53
2022-10-30T13:41:22.133Z,962.49
2022-10-30T13:46:55.392Z,962.49
2022-10-30T13:52:27.253Z,962.45
2022-10-30T13:57:58.854Z,962.43
2022-10-30T14:03:31.027Z,962.39
2022-10-30T14:09:03.167Z,962.41
2022-10-30T14:14:34.852Z,962.41
2022-10-30T14:20:12.522Z,962.41
2022-10-30T14:25:38.181Z,962.43
2022-10-30T14:36:39.355Z,962.45
2022-10-30T14:42:11.097Z,962.45
2022-10-30T14:50:04.393Z,962.39
2022-10-30T14:55:36.221Z,962.41
2022-10-30T15:01:08.018Z,962.43
2022-10-30T15:06:39.810Z,962.45
2022-10-30T15:23:10.158Z,962.49
2022-10-30T15:28:41.957Z,962.49
2022-10-30T15:34:14.195Z,962.47
2022-10-30T15:39:45.550Z,962.47
2022-10-30T15:45:17.272Z,962.49
2022-10-30T15:56:20.061Z,962.51
2022-10-30T16:01:50.325Z,962.57
2022-10-30T16:07:22.181Z,962.57
2022-10-30T16:31:44.096Z,962.65
2022-10-30T16:37:16.068Z,962.65
2022-10-30T16:53:49.205Z,962.71
2022-10-30T16:59:20.757Z,962.74
2022-10-30T17:04:55.405Z,962.78
2022-10-30T17:10:24.219Z,962.82
2022-10-30T17:21:25.332Z,962.88
2022-10-30T17:34:47.467Z,963.08
2022-10-30T17:56:03.628Z,963.24
2022-10-30T18:01:37.415Z,963.24
2022-10-30T18:07:09.012Z,963.22
2022-10-30T18:12:41.097Z,963.25
2022-10-30T18:18:12.843Z,963.25
2022-10-30T18:26:05.013Z,963.31
2022-10-30T18:31:36.945Z,963.35
2022-10-30T18:37:08.666Z,963.39
2022-10-30T18:42:40.621Z,963.39
2022-10-30T18:48:12.742Z,963.41
2022-10-30T18:53:44.673Z,963.47
2022-10-30T18:59:16.914Z,963.45
2022-10-30T19:04:48.570Z,963.47
2022-10-30T19:10:20.094Z,963.45
2022-10-30T19:15:54.800Z,963.43
2022-10-30T19:21:23.672Z,963.45
2022-10-30T19:26:55.566Z,963.43
2022-10-30T19:34:47.219Z,963.43
2022-10-30T19:40:19.028Z,963.41
2022-10-30T19:45:52.872Z,963.45
2022-10-30T19:51:22.545Z,963.45
2022-10-30T19:56:54.492Z,963.47
2022-10-30T20:02:26.485Z,963.51
2022-10-30T20:07:58.442Z,963.49
2022-10-30T20:13:29.750Z,963.49
2022-10-30T20:19:01.504Z,963.47
2022-10-30T20:24:33.003Z,963.45
2022-10-30T20:30:04.660Z,963.47
2022-10-30T20:35:36.611Z,963.47
2022-10-30T20:41:08.034Z,963.51
2022-10-30T20:46:39.644Z,963.55
2022-10-30T20:52:11.833Z,963.61
2022-10-30T20:57:43.660Z,963.67
2022-10-30T21:03:15.421Z,963.69
2022-10-30T21:08:47.061Z,963.72
2022-10-30T21:14:18.656Z,963.71
2022-10-30T21:19:50.183Z,963.74
2022-10-30T21:25:21.875Z,963.74
2022-10-30T21:30:54.027Z,963.76
2022-10-30T21:36:25.284Z,963.78
2022-10-30T21:41:56.866Z,963.72
2022-10-30T21:47:28.417Z,963.76
2022-10-30T21:53:00.079Z,963.76
2022-10-30T21:58:31.660Z,963.76
2022-10-30T22:04:03.329Z,963.80
2022-10-30T22:09:35.105Z,963.84
2022-10-30T22:15:06.798Z,963.82
2022-10-30T22:20:38.651Z,963.80
2022-10-30T22:26:10.374Z,963.80
2022-10-30T22:31:42.189Z,963.76
2022-10-30T22:37:13.703Z,963.74
2022-10-30T22:42:45.652Z,963.71
2022-10-30T22:48:17.321Z,963.71
2022-10-30T22:50:41.163Z,963.67
2022-10-30T22:56:12.671Z,963.69
2022-10-30T23:01:44.537Z,963.74
2022-10-30T23:07:16.156Z,963.74
2022-10-30T23:12:47.916Z,963.76
2022-10-30T23:18:19.840Z,963.74
2022-10-30T23:23:51.579Z,963.74
2022-10-30T23:29:23.285Z,963.72
2022-10-30T23:34:55.135Z,963.74
2022-10-30T23:40:26.916Z,963.72
2022-10-30T23:45:58.481Z,963.76
2022-10-30T23:51:30.274Z,963.74
2022-10-30T23:57:01.867Z,963.76
